Willingham, United Kingdom
Current Conditions -  °F | °C
As of 12:50 AM on Tuesday 21 Oct 2014 (Local Time) from EGXP Reporting Station
Broken Clouds Broken Clouds  
Wind Chill: 52°   Ceiling: 19000
Heat Index: 52°   Visibility: 6mi
Dew Point: 50°   Wind: 14mph
Humidity: 94%   Direction: 200°SSW
Pressure: 29.65"   Gusts: NA
Location:  53.35°N, 0.68°W
Report Text: EGXP 202350Z AUTO 20012KT 9999 // SCT150/// BKN190/// 11/10 Q1004
Loading
Personal Weather Stations






























Interactive Weather Map
Tropical Storm Tracking
New forecast layout! Learn more

10-Day Weather Forecast

Advertisements
Track Severe Weather on mobile